createdAt,value
2022-10-15T00:01:20.378Z,96268.97
2022-10-15T00:03:47.077Z,96403.25
2022-10-15T00:06:16.729Z,96467.75
2022-10-15T00:08:43.464Z,96372.13
2022-10-15T00:11:14.997Z,96462.38
2022-10-15T00:13:41.919Z,96442.41
2022-10-15T00:16:09.831Z,96468.41
2022-10-15T00:18:36.543Z,96474.25
2022-10-15T00:21:06.364Z,96473.09
2022-10-15T00:23:32.947Z,96410.75
2022-10-15T00:26:08.197Z,96482.81
2022-10-15T00:28:35.316Z,96421.44
2022-10-15T00:31:06.560Z,96509.28
2022-10-15T00:33:33.746Z,96478.47
2022-10-15T00:36:14.136Z,96467.75
2022-10-15T00:38:40.852Z,96387.53
2022-10-15T00:41:08.371Z,96440.13
2022-10-15T00:43:42.307Z,96413.69
2022-10-15T00:46:23.831Z,96401.81
2022-10-15T00:48:54.147Z,96235.25
2022-10-15T00:51:21.112Z,96467.06
2022-10-15T00:53:48.531Z,96441.59
2022-10-15T00:56:16.285Z,96444.50
2022-10-15T00:58:42.872Z,96463.63
2022-10-15T01:01:09.452Z,96431.97
2022-10-15T01:03:36.092Z,96333.81
2022-10-15T01:06:02.715Z,96265.72
2022-10-15T01:08:29.348Z,96410.38
2022-10-15T01:11:00.379Z,96425.78
2022-10-15T01:13:40.741Z,96347.59
2022-10-15T01:16:20.262Z,96463.91
2022-10-15T01:18:54.805Z,96390.91
2022-10-15T01:21:22.486Z,96458.72
2022-10-15T01:24:01.129Z,96449.09
2022-10-15T01:26:55.075Z,96452.06
2022-10-15T01:29:33.665Z,96441.00
2022-10-15T01:32:12.122Z,96427.19
2022-10-15T01:35:11.616Z,96232.44
2022-10-15T01:37:43.429Z,96349.81
2022-10-15T01:40:15.567Z,96316.25
2022-10-15T01:42:56.667Z,96424.56
2022-10-15T01:45:28.220Z,96134.75
2022-10-15T01:47:56.679Z,96426.19
2022-10-15T01:50:24.552Z,96318.34
2022-10-15T01:52:51.819Z,96315.53
2022-10-15T01:55:19.381Z,96325.13
2022-10-15T01:57:45.934Z,96219.09
2022-10-15T02:00:12.677Z,96317.31
2022-10-15T02:02:39.439Z,96413.94
2022-10-15T02:05:06.463Z,96303.66
2022-10-15T02:07:43.691Z,96409.03
2022-10-15T02:10:22.089Z,96392.63
2022-10-15T02:12:52.920Z,96257.63
2022-10-15T02:15:50.392Z,96398.81
2022-10-15T02:18:38.527Z,96306.06
2022-10-15T02:21:31.809Z,96287.56
2022-10-15T02:24:10.449Z,96351.69
2022-10-15T02:26:37.097Z,96285.16
2022-10-15T02:29:04.842Z,96228.91
2022-10-15T02:31:31.976Z,96305.25
2022-10-15T02:34:01.128Z,96176.44
2022-10-15T02:36:27.770Z,96291.63
2022-10-15T02:38:55.068Z,96300.84
2022-10-15T02:41:21.635Z,96287.53
2022-10-15T02:43:48.402Z,96130.44
2022-10-15T02:46:15.012Z,96300.19
2022-10-15T02:48:41.603Z,96261.59
2022-10-15T02:51:08.228Z,96350.25
2022-10-15T02:53:34.871Z,96313.84
2022-10-15T02:56:01.575Z,96293.59
2022-10-15T02:58:29.330Z,96236.31
2022-10-15T03:00:56.296Z,96292.88
2022-10-15T03:03:23.028Z,96199.88
2022-10-15T03:05:49.759Z,96230.16
2022-10-15T03:08:16.363Z,96254.59
2022-10-15T03:10:43.028Z,96238.91
2022-10-15T03:13:09.643Z,96270.47
2022-10-15T03:15:36.765Z,96345.69
2022-10-15T03:18:03.995Z,96255.75
2022-10-15T03:20:30.554Z,96322.84
2022-10-15T03:22:57.242Z,96238.56
2022-10-15T03:25:23.972Z,96259.44
2022-10-15T03:27:52.916Z,96293.63
2022-10-15T03:30:19.953Z,96241.66
2022-10-15T03:32:48.030Z,96271.59
2022-10-15T03:35:15.609Z,96109.03
2022-10-15T03:37:42.197Z,96239.22
2022-10-15T03:40:13.420Z,96279.13
2022-10-15T03:42:41.327Z,96280.03
2022-10-15T03:45:08.607Z,96311.63
2022-10-15T03:47:35.318Z,96258.47
2022-10-15T03:50:02.229Z,96290.38
2022-10-15T03:52:28.813Z,96285.16
2022-10-15T03:54:55.407Z,96203.47
2022-10-15T03:57:22.033Z,96304.59
2022-10-15T03:59:48.607Z,96253.88
2022-10-15T04:02:15.319Z,96244.66
2022-10-15T04:04:41.942Z,96241.38
2022-10-15T04:07:08.533Z,96282.84
2022-10-15T04:09:35.177Z,96321.59
2022-10-15T04:12:01.748Z,96226.97
2022-10-15T04:14:28.429Z,96235.25
2022-10-15T04:16:55.964Z,96214.97
2022-10-15T04:19:22.584Z,96163.38
2022-10-15T04:21:49.146Z,96332.66
2022-10-15T04:24:15.700Z,96274.25
2022-10-15T04:26:42.256Z,96180.34
2022-10-15T04:29:09.069Z,96157.16
2022-10-15T04:31:35.694Z,96255.22
2022-10-15T04:34:02.414Z,96299.69
2022-10-15T04:36:29.066Z,96303.06
2022-10-15T04:38:55.681Z,96200.94
2022-10-15T04:41:22.294Z,96065.28
2022-10-15T04:43:48.870Z,96295.06
2022-10-15T04:46:15.545Z,96216.78
2022-10-15T04:48:43.307Z,96283.31
2022-10-15T04:51:18.012Z,96245.16
2022-10-15T04:53:44.629Z,96240.09
2022-10-15T04:56:13.811Z,96212.09
2022-10-15T04:58:40.830Z,96273.38
2022-10-15T05:01:09.332Z,96231.91
2022-10-15T05:03:38.489Z,96309.06
2022-10-15T05:06:12.223Z,96265.81
2022-10-15T05:08:41.814Z,96270.66
2022-10-15T05:11:10.559Z,96260.94
2022-10-15T05:13:37.266Z,96275.34
2022-10-15T05:16:17.064Z,96332.81
2022-10-15T05:18:44.781Z,96264.59
2022-10-15T05:21:11.511Z,96229.91
2022-10-15T05:23:38.351Z,96224.81
2022-10-15T05:26:09.119Z,96229.91
2022-10-15T05:28:35.911Z,96266.22
2022-10-15T05:31:10.991Z,96157.97
2022-10-15T05:33:39.410Z,96255.91
2022-10-15T05:36:12.739Z,96224.66
2022-10-15T05:38:40.522Z,96201.34
2022-10-15T05:41:07.163Z,96248.75
2022-10-15T05:43:43.337Z,96260.44
2022-10-15T05:46:09.901Z,96150.03
2022-10-15T05:48:36.553Z,96138.59
2022-10-15T05:51:04.150Z,96168.72
2022-10-15T05:53:30.759Z,96271.00
2022-10-15T05:55:58.851Z,96160.59
2022-10-15T05:58:26.336Z,96165.31
2022-10-15T06:00:57.166Z,96123.50
2022-10-15T06:03:23.968Z,96257.19
2022-10-15T06:05:50.831Z,96154.44
2022-10-15T06:08:17.762Z,96236.09
2022-10-15T06:10:44.387Z,96285.00
2022-10-15T06:13:11.077Z,96284.19
2022-10-15T06:15:41.330Z,96169.41
2022-10-15T06:18:08.027Z,96010.13
2022-10-15T06:20:34.683Z,96261.22
2022-10-15T06:23:01.624Z,96372.22
2022-10-15T06:25:28.471Z,96260.72
2022-10-15T06:27:55.054Z,96083.31
2022-10-15T06:30:21.624Z,96308.19
2022-10-15T06:32:51.963Z,96371.34
2022-10-15T06:35:18.840Z,96140.31
2022-10-15T06:37:45.535Z,96351.03
2022-10-15T06:40:12.470Z,96301.94
2022-10-15T06:42:39.480Z,96225.50
2022-10-15T06:45:06.936Z,96348.28
2022-10-15T06:47:33.520Z,96278.41
2022-10-15T06:50:00.767Z,96268.22
2022-10-15T06:52:29.281Z,96388.78
2022-10-15T06:54:55.913Z,96337.91
2022-10-15T06:57:22.772Z,96245.28
2022-10-15T06:59:49.676Z,96347.91
2022-10-15T07:02:17.801Z,96153.06
2022-10-15T07:04:44.620Z,96390.69
2022-10-15T07:07:11.244Z,96333.50
2022-10-15T07:09:37.988Z,96213.81
2022-10-15T07:12:05.341Z,96329.78
2022-10-15T07:14:32.167Z,96369.94
2022-10-15T07:16:59.254Z,96352.31
2022-10-15T07:19:25.909Z,96297.69
2022-10-15T07:21:52.706Z,96091.00
2022-10-15T07:24:19.332Z,96147.97
2022-10-15T07:26:47.744Z,96288.41
2022-10-15T07:29:14.549Z,96320.75
2022-10-15T07:31:41.202Z,96147.19
2022-10-15T07:34:07.832Z,96346.50
2022-10-15T07:36:34.440Z,96280.59
2022-10-15T07:39:01.069Z,96305.84
2022-10-15T07:41:27.694Z,96350.97
2022-10-15T07:43:54.312Z,96334.66
2022-10-15T07:46:20.928Z,96357.69
2022-10-15T07:48:47.610Z,96282.38
2022-10-15T07:51:14.314Z,96329.34
2022-10-15T07:53:41.052Z,96180.59
2022-10-15T07:56:08.377Z,96331.31
2022-10-15T07:58:35.504Z,96342.44
2022-10-15T08:01:02.484Z,96037.06
2022-10-15T08:03:29.158Z,96355.88
2022-10-15T08:05:56.049Z,96300.13
2022-10-15T08:08:22.970Z,96150.34
2022-10-15T08:10:49.673Z,96201.44
2022-10-15T08:13:16.254Z,96187.81
2022-10-15T08:15:42.893Z,96231.69
2022-10-15T08:18:49.835Z,96393.81
2022-10-15T08:21:16.423Z,96310.41
2022-10-15T08:23:43.227Z,96307.25
2022-10-15T08:26:09.875Z,96327.56
2022-10-15T08:28:36.803Z,96360.28
2022-10-15T08:31:05.615Z,96381.88
2022-10-15T08:33:36.079Z,96347.88
2022-10-15T08:36:04.642Z,96402.66
2022-10-15T08:38:31.469Z,96316.16
2022-10-15T08:40:58.954Z,96348.97
2022-10-15T08:43:40.049Z,96372.25
2022-10-15T08:46:11.988Z,96324.59
2022-10-15T08:48:42.876Z,96273.22
2022-10-15T08:51:40.056Z,96321.72
2022-10-15T08:54:06.821Z,96349.34
2022-10-15T08:56:41.249Z,96282.19
2022-10-15T08:59:28.303Z,96398.53
2022-10-15T09:01:57.893Z,96394.50
2022-10-15T09:04:31.737Z,96422.44
2022-10-15T09:07:27.416Z,96424.84
2022-10-15T09:09:59.845Z,96424.69
2022-10-15T09:12:45.289Z,96425.31
2022-10-15T09:15:17.333Z,96377.47
2022-10-15T09:17:44.141Z,96317.84
2022-10-15T09:20:27.055Z,96232.44
2022-10-15T09:22:53.766Z,96378.44
2022-10-15T09:25:22.221Z,96308.59
2022-10-15T09:27:49.288Z,96185.75
2022-10-15T09:30:28.098Z,96453.81
2022-10-15T09:33:03.928Z,96460.66
2022-10-15T09:35:34.725Z,96316.38
2022-10-15T09:38:05.718Z,96433.16
2022-10-15T09:40:44.824Z,96446.28
2022-10-15T09:43:11.419Z,96438.78
2022-10-15T09:45:38.064Z,96451.44
2022-10-15T09:48:14.048Z,96438.81
2022-10-15T09:50:43.080Z,96280.66
2022-10-15T09:53:38.734Z,96394.28
2022-10-15T09:56:08.185Z,96429.63
2022-10-15T09:58:39.256Z,96448.09
2022-10-15T10:01:07.121Z,96392.47
2022-10-15T10:03:34.633Z,96412.13
2022-10-15T10:06:09.463Z,96407.09
2022-10-15T10:08:38.105Z,96440.06
2022-10-15T10:11:07.405Z,96443.69
2022-10-15T10:13:39.677Z,96388.31
2022-10-15T10:16:08.996Z,96336.56
2022-10-15T10:18:37.656Z,96180.81
2022-10-15T10:21:20.904Z,96448.88
2022-10-15T10:23:47.589Z,96354.59
2022-10-15T10:26:14.228Z,96187.03
2022-10-15T10:28:57.099Z,96437.00
2022-10-15T10:31:33.357Z,96403.03
2022-10-15T10:34:03.228Z,96425.47
2022-10-15T10:36:31.579Z,96399.13
2022-10-15T10:39:02.105Z,96351.91
2022-10-15T10:42:07.802Z,96443.28
2022-10-15T10:44:41.550Z,96435.25
2022-10-15T10:47:08.606Z,96436.47
2022-10-15T10:50:04.487Z,96447.22
2022-10-15T10:52:35.178Z,96252.25
2022-10-15T10:55:07.089Z,96344.56
2022-10-15T10:57:50.448Z,96449.28
2022-10-15T11:00:38.741Z,96259.94
2022-10-15T11:03:05.994Z,96279.44
2022-10-15T11:05:34.017Z,96330.19
2022-10-15T11:08:22.265Z,96427.63
2022-10-15T11:11:20.843Z,96383.06
2022-10-15T11:14:29.428Z,96430.44
2022-10-15T11:17:24.443Z,96299.63
2022-10-15T11:20:26.728Z,96438.63
2022-10-15T11:23:17.612Z,96300.16
2022-10-15T11:25:53.566Z,96099.91
2022-10-15T11:28:26.547Z,96251.94
2022-10-15T11:31:15.126Z,96423.75
2022-10-15T11:33:44.818Z,96432.19
2022-10-15T11:36:23.994Z,96432.78
2022-10-15T11:39:11.441Z,96150.00
2022-10-15T11:41:40.390Z,96326.00
2022-10-15T11:44:21.657Z,96279.34
2022-10-15T11:47:07.221Z,96399.84
2022-10-15T11:49:59.269Z,96395.00
2022-10-15T11:52:41.003Z,96340.69
2022-10-15T11:55:14.379Z,96156.75
2022-10-15T11:57:40.964Z,96311.03
2022-10-15T12:00:30.336Z,96422.53
2022-10-15T12:02:57.351Z,96379.16
2022-10-15T12:05:31.932Z,96124.97
2022-10-15T12:07:58.675Z,96341.97
2022-10-15T12:10:34.398Z,96434.25
2022-10-15T12:13:21.177Z,96441.31
2022-10-15T12:16:06.353Z,96356.66
2022-10-15T12:18:34.917Z,96429.94
2022-10-15T12:21:01.530Z,96248.38
2022-10-15T12:23:37.158Z,96415.38
2022-10-15T12:26:42.029Z,96423.91
2022-10-15T12:29:21.319Z,96192.97
2022-10-15T12:31:48.664Z,96430.94
2022-10-15T12:34:27.198Z,96386.91
2022-10-15T12:37:05.396Z,96288.00
2022-10-15T12:39:52.223Z,96368.88
2022-10-15T12:42:27.845Z,96323.44
2022-10-15T12:44:54.668Z,96271.56
2022-10-15T12:47:48.837Z,96412.31
2022-10-15T12:50:18.657Z,96422.38
2022-10-15T12:53:01.429Z,96411.91
2022-10-15T12:55:34.717Z,96446.16
2022-10-15T12:58:33.325Z,96426.81
2022-10-15T13:01:07.602Z,96214.81
2022-10-15T13:04:05.541Z,96427.44
2022-10-15T13:06:34.281Z,96356.13
2022-10-15T13:09:09.942Z,96442.56
2022-10-15T13:11:54.915Z,96433.28
2022-10-15T13:14:30.540Z,96443.72
2022-10-15T13:16:57.268Z,96421.03
2022-10-15T13:19:40.088Z,96390.34
2022-10-15T13:22:18.978Z,96388.63
2022-10-15T13:24:45.703Z,96344.97
2022-10-15T13:27:22.539Z,96297.47
2022-10-15T13:29:56.202Z,96428.78
2022-10-15T13:32:23.338Z,96358.94
2022-10-15T13:34:50.064Z,96385.06
2022-10-15T13:37:23.273Z,96330.69
2022-10-15T13:39:50.506Z,96127.78
2022-10-15T13:42:17.059Z,96437.47
2022-10-15T13:45:01.400Z,96387.81
2022-10-15T13:47:35.772Z,96386.00
2022-10-15T13:50:13.303Z,96312.25
2022-10-15T13:52:44.825Z,96421.75
2022-10-15T13:55:26.580Z,96409.25
2022-10-15T13:58:01.621Z,96382.19
2022-10-15T14:00:31.502Z,96326.56
2022-10-15T14:03:08.129Z,96366.72
2022-10-15T14:05:34.808Z,96303.38
2022-10-15T14:08:01.794Z,96274.66
2022-10-15T14:10:28.394Z,96189.13
2022-10-15T14:12:54.989Z,96134.03
2022-10-15T14:15:40.914Z,96395.59
2022-10-15T14:18:07.832Z,96435.28
2022-10-15T14:20:34.652Z,96444.91
2022-10-15T14:23:01.276Z,96353.97
2022-10-15T14:25:28.635Z,96340.59
2022-10-15T14:27:55.397Z,96404.59
2022-10-15T14:30:42.948Z,96340.91
2022-10-15T14:33:32.218Z,96438.47
2022-10-15T14:36:05.466Z,96449.09
2022-10-15T14:38:32.189Z,96292.31
2022-10-15T14:41:04.854Z,96405.13
2022-10-15T14:43:35.357Z,96372.69
2022-10-15T14:46:03.277Z,96141.59
2022-10-15T14:48:35.594Z,96410.50
2022-10-15T14:51:07.281Z,96375.97
2022-10-15T14:53:39.406Z,96350.38
2022-10-15T14:56:15.598Z,96341.22
2022-10-15T14:58:47.322Z,96336.16
2022-10-15T15:01:13.959Z,96396.81
2022-10-15T15:03:42.582Z,96337.66
2022-10-15T15:06:09.395Z,96207.81
2022-10-15T15:08:36.015Z,96402.75
2022-10-15T15:11:05.634Z,96352.03
2022-10-15T15:13:37.972Z,96387.19
2022-10-15T15:16:04.961Z,96294.88
2022-10-15T15:18:31.578Z,96301.91
2022-10-15T15:21:02.946Z,96300.63
2022-10-15T15:23:29.753Z,96299.72
2022-10-15T15:25:56.705Z,96367.84
2022-10-15T15:28:25.535Z,96198.81
2022-10-15T15:31:02.982Z,96276.13
2022-10-15T15:33:29.640Z,96384.22
2022-10-15T15:36:00.407Z,96418.72
2022-10-15T15:38:31.527Z,96434.81
2022-10-15T15:41:04.055Z,96177.25
2022-10-15T15:43:30.972Z,96407.44
2022-10-15T15:45:57.577Z,96409.34
2022-10-15T15:48:24.325Z,96172.63
2022-10-15T15:50:50.935Z,96470.38
2022-10-15T15:53:17.608Z,96396.56
2022-10-15T15:55:44.285Z,96358.72
2022-10-15T15:58:10.857Z,96392.00
2022-10-15T16:00:37.490Z,96362.78
2022-10-15T16:03:04.091Z,96227.69
2022-10-15T16:05:30.734Z,96428.53
2022-10-15T16:07:57.332Z,96350.59
2022-10-15T16:10:24.085Z,96195.91
2022-10-15T16:12:50.746Z,96281.31
2022-10-15T16:15:22.480Z,96361.94
2022-10-15T16:17:49.062Z,96388.94
2022-10-15T16:20:15.757Z,96465.81
2022-10-15T16:22:42.943Z,96371.06
2022-10-15T16:25:10.155Z,96459.72
2022-10-15T16:27:36.785Z,96452.59
2022-10-15T16:30:03.905Z,96317.50
2022-10-15T16:32:30.516Z,96455.72
2022-10-15T16:34:57.096Z,96421.16
2022-10-15T16:37:23.898Z,96473.00
2022-10-15T16:39:50.666Z,96351.28
2022-10-15T16:44:48.924Z,96489.81
2022-10-15T16:47:15.486Z,96446.03
2022-10-15T16:49:43.044Z,96298.13
2022-10-15T16:52:09.784Z,96508.06
2022-10-15T16:54:36.628Z,96424.16
2022-10-15T16:57:03.506Z,96509.50
2022-10-15T16:59:30.135Z,96502.66
2022-10-15T17:01:56.783Z,96487.63
2022-10-15T17:04:23.472Z,96491.72
2022-10-15T17:06:50.234Z,96466.78
2022-10-15T17:09:16.827Z,96522.72
2022-10-15T17:11:43.598Z,96529.53
2022-10-15T17:14:11.511Z,96483.63
2022-10-15T17:16:45.103Z,96480.09
2022-10-15T17:19:15.213Z,96533.31
2022-10-15T17:21:42.717Z,96429.16
2022-10-15T17:24:12.660Z,96231.06
2022-10-15T17:26:40.569Z,96517.31
2022-10-15T17:29:16.386Z,96483.28
2022-10-15T17:31:43.164Z,96571.91
2022-10-15T17:34:10.600Z,96435.31
2022-10-15T17:36:43.066Z,96561.00
2022-10-15T17:39:10.020Z,96536.34
2022-10-15T17:41:36.586Z,96566.03
2022-10-15T17:44:03.940Z,96338.97
2022-10-15T17:46:30.971Z,96522.59
2022-10-15T17:48:57.985Z,96539.81
2022-10-15T17:51:26.776Z,96538.34
2022-10-15T17:53:53.655Z,96531.44
2022-10-15T17:56:24.697Z,96356.66
2022-10-15T17:58:51.486Z,96388.94
2022-10-15T18:01:28.075Z,96540.50
2022-10-15T18:04:06.454Z,96479.44
2022-10-15T18:06:33.033Z,96521.78
2022-10-15T18:09:00.486Z,96496.31
2022-10-15T18:11:29.236Z,96582.16
2022-10-15T18:13:55.895Z,96610.56
2022-10-15T18:16:22.621Z,96567.25
2022-10-15T18:18:49.563Z,96579.19
2022-10-15T18:21:17.238Z,96399.56
2022-10-15T18:23:43.913Z,96558.78
2022-10-15T18:26:14.688Z,96415.22
2022-10-15T18:28:44.515Z,96570.00
2022-10-15T18:31:15.387Z,96519.31
2022-10-15T18:33:43.090Z,96548.38
2022-10-15T18:36:11.511Z,96615.25
2022-10-15T18:38:38.132Z,96576.53
2022-10-15T18:41:15.503Z,96580.81
2022-10-15T18:43:42.172Z,96641.66
2022-10-15T18:46:08.932Z,96501.31
2022-10-15T18:48:37.395Z,96628.88
2022-10-15T18:51:09.180Z,96589.31
2022-10-15T18:53:37.235Z,96342.16
2022-10-15T18:56:04.523Z,96548.00
2022-10-15T18:58:31.198Z,96613.19
2022-10-15T19:00:58.309Z,96623.38
2022-10-15T19:03:25.255Z,96556.84
2022-10-15T19:05:51.951Z,96649.13
2022-10-15T19:08:20.798Z,96623.81
2022-10-15T19:10:48.230Z,96640.50
2022-10-15T19:13:14.972Z,96586.78
2022-10-15T19:15:41.592Z,96678.91
2022-10-15T19:18:11.502Z,96659.91
2022-10-15T19:20:40.421Z,96612.47
2022-10-15T19:23:07.135Z,96628.59
2022-10-15T19:25:33.900Z,96664.06
2022-10-15T19:28:00.702Z,96494.31
2022-10-15T19:30:28.300Z,96545.81
2022-10-15T19:32:54.999Z,96621.59
2022-10-15T19:35:21.565Z,96409.28
2022-10-15T19:37:48.383Z,96444.03
2022-10-15T19:40:15.062Z,96636.72
2022-10-15T19:42:41.801Z,96705.66
2022-10-15T19:45:09.044Z,96615.13
2022-10-15T19:47:35.844Z,96582.19
2022-10-15T19:50:02.455Z,96619.84
2022-10-15T19:52:29.225Z,96564.66
2022-10-15T19:54:55.962Z,96673.19
2022-10-15T19:57:23.615Z,96634.84
2022-10-15T19:59:50.513Z,96727.50
2022-10-15T20:02:17.190Z,96616.84
2022-10-15T20:04:43.801Z,96684.88
2022-10-15T20:07:10.591Z,96706.38
2022-10-15T20:09:37.308Z,96660.22
2022-10-15T20:12:03.918Z,96693.06
2022-10-15T20:14:30.490Z,96680.22
2022-10-15T20:16:57.238Z,96668.03
2022-10-15T20:19:23.997Z,96736.84
2022-10-15T20:21:50.880Z,96704.63
2022-10-15T20:24:17.559Z,96665.78
2022-10-15T20:26:44.382Z,96678.16
2022-10-15T20:29:10.985Z,96715.53
2022-10-15T20:31:37.579Z,96520.38
2022-10-15T20:34:04.206Z,96495.19
2022-10-15T20:36:30.867Z,96749.06
2022-10-15T20:38:59.291Z,96706.94
2022-10-15T20:41:25.978Z,96677.19
2022-10-15T20:43:54.860Z,96707.25
2022-10-15T20:46:33.581Z,96627.78
2022-10-15T20:49:07.618Z,96701.59
2022-10-15T20:51:36.220Z,96757.81
2022-10-15T20:54:02.918Z,96399.09
2022-10-15T20:56:29.525Z,96736.38
2022-10-15T20:58:56.174Z,96459.13
2022-10-15T21:01:23.056Z,96706.31
2022-10-15T21:03:49.681Z,96759.00
2022-10-15T21:06:16.329Z,96736.38
2022-10-15T21:08:42.951Z,96722.56
2022-10-15T21:11:09.855Z,96679.81
2022-10-15T21:13:36.502Z,96763.22
2022-10-15T21:16:05.614Z,96731.50
2022-10-15T21:18:32.866Z,96642.56
2022-10-15T21:21:07.530Z,96603.06
2022-10-15T21:23:34.729Z,96598.34
2022-10-15T21:26:14.717Z,96754.09
2022-10-15T21:28:41.633Z,96690.69
2022-10-15T21:31:09.610Z,96671.50
2022-10-15T21:33:36.464Z,96621.75
2022-10-15T21:36:10.161Z,96703.69
2022-10-15T21:38:36.806Z,96704.00
2022-10-15T21:41:03.532Z,96661.25
2022-10-15T21:43:30.251Z,96795.44
2022-10-15T21:46:05.259Z,96784.53
2022-10-15T21:48:31.658Z,96786.94
2022-10-15T21:50:58.260Z,96721.06
2022-10-15T21:53:24.879Z,96720.25
2022-10-15T21:55:55.449Z,96686.91
2022-10-15T21:58:22.074Z,96708.88
2022-10-15T22:00:49.171Z,96728.06
2022-10-15T22:03:15.795Z,96748.25
2022-10-15T22:05:42.987Z,96706.44
2022-10-15T22:08:09.670Z,96647.56
2022-10-15T22:10:36.998Z,96775.66
2022-10-15T22:13:03.884Z,96737.97
2022-10-15T22:15:32.239Z,96658.44
2022-10-15T22:17:58.859Z,96598.84
2022-10-15T22:20:25.908Z,96646.94
2022-10-15T22:22:55.660Z,96705.75
2022-10-15T22:25:22.294Z,96639.44
2022-10-15T22:27:48.980Z,96693.09
2022-10-15T22:30:15.732Z,96765.91
2022-10-15T22:32:42.374Z,96677.94
2022-10-15T22:35:09.055Z,96644.19
2022-10-15T22:37:35.710Z,96717.16
2022-10-15T22:40:02.311Z,96654.91
2022-10-15T22:42:29.068Z,96796.84
2022-10-15T22:44:55.730Z,96764.00
2022-10-15T22:47:22.294Z,96761.09
2022-10-15T22:49:48.976Z,96778.63
2022-10-15T22:52:15.671Z,96511.75
2022-10-15T22:54:42.236Z,96678.16
2022-10-15T22:57:08.959Z,96724.94
2022-10-15T22:59:35.743Z,96680.72
2022-10-15T23:02:04.246Z,96729.84
2022-10-15T23:04:30.803Z,96800.75
2022-10-15T23:06:57.411Z,96712.72
2022-10-15T23:09:24.017Z,96680.06
2022-10-15T23:12:12.550Z,96784.78
2022-10-15T23:14:39.149Z,96740.13
2022-10-15T23:17:05.749Z,96618.84
2022-10-15T23:19:32.420Z,96786.19
2022-10-15T23:22:01.273Z,96658.50
2022-10-15T23:24:29.079Z,96754.28
2022-10-15T23:26:55.823Z,96810.75
2022-10-15T23:29:23.927Z,96753.63
2022-10-15T23:31:50.719Z,96779.47
2022-10-15T23:34:19.256Z,96731.84
2022-10-15T23:36:45.972Z,96609.28
2022-10-15T23:39:14.368Z,96555.78
2022-10-15T23:41:41.036Z,96800.47
2022-10-15T23:44:07.921Z,96689.06
2022-10-15T23:46:34.483Z,96526.53
2022-10-15T23:49:01.125Z,96760.47
2022-10-15T23:51:30.146Z,96544.28
2022-10-15T23:54:00.267Z,96590.06
2022-10-15T23:56:26.930Z,96636.06
2022-10-15T23:58:58.175Z,96781.09
